createdAt,value
2023-03-08T00:00:51.504Z,0.00
2023-03-08T00:01:51.454Z,0.00
2023-03-08T00:02:51.445Z,0.00
2023-03-08T00:03:51.488Z,0.00
2023-03-08T00:04:51.526Z,0.00
2023-03-08T00:05:51.461Z,0.00
2023-03-08T00:06:51.425Z,0.00
2023-03-08T00:07:51.503Z,0.00
2023-03-08T00:08:51.434Z,0.00
2023-03-08T00:09:51.405Z,0.00
2023-03-08T00:10:51.420Z,0.00
2023-03-08T00:11:51.403Z,0.00
2023-03-08T00:12:51.409Z,0.00
2023-03-08T00:13:51.320Z,0.00
2023-03-08T00:14:51.336Z,0.00
2023-03-08T00:15:51.361Z,0.00
2023-03-08T00:16:51.289Z,0.00
2023-03-08T00:17:51.275Z,0.00
2023-03-08T00:18:51.291Z,0.00
2023-03-08T00:19:51.249Z,0.00
2023-03-08T00:20:51.285Z,0.00
2023-03-08T00:21:51.280Z,0.00
2023-03-08T00:22:51.236Z,0.00
2023-03-08T00:23:51.210Z,0.00
2023-03-08T00:24:51.220Z,0.00
2023-03-08T00:25:51.217Z,0.00
2023-03-08T00:26:51.175Z,0.00
2023-03-08T00:27:51.218Z,0.00
2023-03-08T00:28:51.202Z,0.00
2023-03-08T00:29:51.152Z,0.00
2023-03-08T00:30:51.144Z,0.00
2023-03-08T00:31:51.170Z,0.00
2023-03-08T00:32:51.131Z,0.00
2023-03-08T00:33:51.164Z,0.00
2023-03-08T00:34:51.081Z,0.00
2023-03-08T00:35:51.105Z,0.00
2023-03-08T00:36:51.054Z,0.00
2023-03-08T00:37:51.051Z,0.00
2023-03-08T00:38:51.079Z,0.00
2023-03-08T00:39:51.066Z,0.00
2023-03-08T00:40:51.023Z,0.00
2023-03-08T00:41:51.037Z,0.00
2023-03-08T00:42:51.005Z,0.00
2023-03-08T00:43:51.022Z,0.00
2023-03-08T00:44:50.964Z,0.00
2023-03-08T00:45:53.119Z,0.00
2023-03-08T00:46:50.999Z,0.00
2023-03-08T00:47:50.992Z,0.00
2023-03-08T00:48:50.935Z,0.00
2023-03-08T00:49:50.957Z,0.00
2023-03-08T00:50:50.908Z,0.00
2023-03-08T00:51:50.964Z,0.00
2023-03-08T00:52:50.889Z,0.00
2023-03-08T00:53:50.901Z,0.00
2023-03-08T00:54:50.877Z,0.00
2023-03-08T00:55:50.857Z,0.00
2023-03-08T00:56:50.857Z,0.00
2023-03-08T00:57:50.866Z,0.00
2023-03-08T00:58:50.834Z,0.00
2023-03-08T00:59:50.822Z,0.00
2023-03-08T01:00:50.874Z,0.00
2023-03-08T01:01:50.791Z,0.00
2023-03-08T01:02:50.844Z,0.00
2023-03-08T01:03:50.918Z,0.00
2023-03-08T01:04:50.791Z,0.00
2023-03-08T01:05:50.761Z,0.00
2023-03-08T01:06:50.797Z,0.00
2023-03-08T01:07:50.747Z,0.00
2023-03-08T01:08:50.803Z,0.00
2023-03-08T01:09:50.702Z,0.00
2023-03-08T01:10:50.708Z,0.00
2023-03-08T01:11:50.689Z,0.00
2023-03-08T01:12:50.691Z,0.00
2023-03-08T01:13:50.654Z,0.00
2023-03-08T01:14:50.690Z,0.00
2023-03-08T01:15:50.638Z,0.00
2023-03-08T01:16:50.637Z,0.00
2023-03-08T01:17:50.619Z,0.00
2023-03-08T01:18:50.645Z,0.00
2023-03-08T01:19:50.590Z,0.00
2023-03-08T01:20:50.628Z,0.00
2023-03-08T01:21:50.592Z,0.00
2023-03-08T01:22:50.547Z,0.00
2023-03-08T01:23:50.562Z,0.00
2023-03-08T01:24:50.538Z,0.00
2023-03-08T01:25:50.536Z,0.00
2023-03-08T01:26:50.540Z,0.00
2023-03-08T01:27:50.509Z,0.00
2023-03-08T01:28:50.493Z,0.00
2023-03-08T01:29:50.479Z,0.00
2023-03-08T01:30:50.510Z,0.00
2023-03-08T01:31:50.469Z,0.00
2023-03-08T01:32:50.503Z,0.00
2023-03-08T01:33:50.499Z,0.00
2023-03-08T01:34:50.429Z,0.00
2023-03-08T01:35:50.489Z,0.00
2023-03-08T01:36:50.453Z,0.00
2023-03-08T01:37:50.429Z,0.00
2023-03-08T01:38:50.441Z,0.00
2023-03-08T01:39:50.368Z,0.00
2023-03-08T01:40:50.397Z,0.00
2023-03-08T01:41:50.349Z,0.00
2023-03-08T01:42:50.346Z,0.00
2023-03-08T01:43:50.425Z,0.00
2023-03-08T01:44:50.382Z,0.00
2023-03-08T01:45:50.298Z,0.00
2023-03-08T01:46:50.292Z,0.00
2023-03-08T01:47:50.293Z,0.00
2023-03-08T01:48:50.298Z,0.00
2023-03-08T01:49:50.328Z,0.00
2023-03-08T01:50:50.260Z,0.00
2023-03-08T01:51:50.242Z,0.00
2023-03-08T01:52:50.228Z,0.00
2023-03-08T01:53:50.227Z,0.00
2023-03-08T01:54:50.232Z,0.00
2023-03-08T01:55:50.211Z,0.00
2023-03-08T01:56:50.245Z,0.00
2023-03-08T01:57:50.284Z,0.00
2023-03-08T01:58:50.160Z,0.00
2023-03-08T01:59:50.160Z,0.00
2023-03-08T02:00:50.196Z,0.00
2023-03-08T02:01:50.161Z,0.00
2023-03-08T02:02:50.116Z,0.00
2023-03-08T02:03:50.113Z,0.00
2023-03-08T02:04:50.106Z,0.00
2023-03-08T02:05:50.091Z,0.00
2023-03-08T02:06:50.104Z,0.00
2023-03-08T02:07:50.062Z,0.00
2023-03-08T02:08:50.046Z,0.00
2023-03-08T02:09:50.049Z,0.00
2023-03-08T02:10:50.110Z,0.00
2023-03-08T02:11:50.031Z,0.00
2023-03-08T02:12:50.070Z,0.00
2023-03-08T02:13:50.004Z,0.00
2023-03-08T02:14:50.001Z,0.00
2023-03-08T02:15:49.985Z,0.00
2023-03-08T02:16:49.981Z,0.00
2023-03-08T02:17:49.965Z,0.00
2023-03-08T02:18:50.003Z,0.00
2023-03-08T02:19:49.934Z,0.00
2023-03-08T02:20:49.924Z,0.00
2023-03-08T02:21:49.961Z,0.00
2023-03-08T02:22:49.938Z,0.00
2023-03-08T02:23:49.902Z,0.00
2023-03-08T02:24:49.977Z,0.00
2023-03-08T02:25:49.877Z,0.00
2023-03-08T02:26:49.861Z,0.00
2023-03-08T02:27:49.886Z,0.00
2023-03-08T02:28:49.849Z,0.00
2023-03-08T02:29:49.856Z,0.00
2023-03-08T02:30:49.879Z,0.00
2023-03-08T02:31:49.808Z,0.00
2023-03-08T02:32:49.857Z,0.00
2023-03-08T02:33:49.783Z,0.00
2023-03-08T02:34:49.804Z,0.00
2023-03-08T02:35:49.814Z,0.00
2023-03-08T02:36:49.783Z,0.00
2023-03-08T02:37:49.782Z,0.00
2023-03-08T02:38:49.733Z,0.00
2023-03-08T02:39:49.777Z,0.00
2023-03-08T02:40:49.703Z,0.00
2023-03-08T02:41:49.732Z,0.00
2023-03-08T02:42:51.635Z,0.00
2023-03-08T02:43:49.682Z,0.00
2023-03-08T02:44:49.677Z,0.00
2023-03-08T02:45:49.651Z,0.00
2023-03-08T02:46:49.665Z,0.00
2023-03-08T02:47:49.703Z,0.00
2023-03-08T02:48:49.616Z,0.00
2023-03-08T02:49:49.614Z,0.00
2023-03-08T02:50:49.601Z,0.00
2023-03-08T02:51:49.591Z,0.00
2023-03-08T02:52:49.573Z,0.00
2023-03-08T02:53:49.588Z,0.00
2023-03-08T02:54:49.551Z,0.00
2023-03-08T02:55:49.560Z,0.00
2023-03-08T02:56:49.623Z,0.00
2023-03-08T02:57:49.561Z,0.00
2023-03-08T02:58:49.508Z,0.00
2023-03-08T02:59:49.527Z,0.00
2023-03-08T03:00:49.516Z,0.00
2023-03-08T03:01:49.472Z,0.00
2023-03-08T03:02:49.468Z,0.00
2023-03-08T03:03:49.478Z,0.00
2023-03-08T03:04:49.450Z,0.00
2023-03-08T03:05:49.450Z,0.00
2023-03-08T03:06:49.433Z,0.00
2023-03-08T03:07:49.402Z,0.00
2023-03-08T03:08:49.410Z,0.00
2023-03-08T03:09:49.419Z,0.00
2023-03-08T03:10:49.822Z,0.00
2023-03-08T03:11:49.361Z,0.00
2023-03-08T03:12:49.363Z,0.00
2023-03-08T03:13:49.327Z,0.00
2023-03-08T03:14:49.699Z,0.00
2023-03-08T03:15:49.352Z,0.00
2023-03-08T03:16:49.387Z,0.00
2023-03-08T03:17:49.323Z,0.00
2023-03-08T03:18:49.300Z,0.00
2023-03-08T03:19:49.266Z,0.00
2023-03-08T03:20:49.256Z,0.00
2023-03-08T03:21:49.290Z,0.00
2023-03-08T03:22:49.263Z,0.00
2023-03-08T03:23:49.296Z,0.00
2023-03-08T03:24:49.236Z,0.00
2023-03-08T03:25:49.201Z,0.00
2023-03-08T03:26:49.208Z,0.00
2023-03-08T03:27:49.196Z,0.00
2023-03-08T03:28:49.207Z,0.00
2023-03-08T03:29:49.163Z,0.00
2023-03-08T03:30:49.169Z,0.00
2023-03-08T03:31:49.134Z,0.00
2023-03-08T03:32:49.123Z,0.00
2023-03-08T03:33:49.140Z,0.00
2023-03-08T03:34:49.135Z,0.00
2023-03-08T03:35:49.216Z,0.00
2023-03-08T03:36:49.089Z,0.00
2023-03-08T03:37:49.082Z,0.00
2023-03-08T03:38:49.079Z,0.00
2023-03-08T03:39:49.054Z,0.00
2023-03-08T03:40:49.078Z,0.00
2023-03-08T03:41:49.025Z,0.00
2023-03-08T03:42:49.028Z,0.00
2023-03-08T03:43:49.004Z,0.00
2023-03-08T03:44:49.012Z,0.00
2023-03-08T03:45:49.032Z,0.00
2023-03-08T03:46:49.009Z,0.00
2023-03-08T03:47:48.972Z,0.00
2023-03-08T03:48:48.962Z,0.00
2023-03-08T03:49:48.948Z,0.00
2023-03-08T03:50:48.941Z,0.00
2023-03-08T03:51:49.000Z,0.00
2023-03-08T03:52:48.924Z,0.00
2023-03-08T03:53:48.915Z,0.00
2023-03-08T03:54:48.886Z,0.00
2023-03-08T03:55:48.890Z,0.00
2023-03-08T03:56:48.912Z,0.00
2023-03-08T03:57:48.886Z,0.00
2023-03-08T03:58:48.857Z,0.00
2023-03-08T03:59:48.837Z,0.00
2023-03-08T04:00:48.843Z,0.00
2023-03-08T04:01:48.829Z,0.00
2023-03-08T04:02:48.888Z,0.00
2023-03-08T04:03:48.861Z,0.00
2023-03-08T04:04:48.809Z,0.00
2023-03-08T04:05:48.780Z,0.00
2023-03-08T04:06:48.775Z,0.00
2023-03-08T04:07:48.759Z,0.00
2023-03-08T04:08:48.770Z,0.00
2023-03-08T04:09:48.743Z,0.00
2023-03-08T04:10:48.717Z,0.00
2023-03-08T04:11:48.782Z,0.00
2023-03-08T04:12:48.788Z,0.00
2023-03-08T04:13:48.692Z,0.00
2023-03-08T04:14:48.726Z,0.00
2023-03-08T04:15:48.758Z,0.00
2023-03-08T04:16:48.678Z,0.00
2023-03-08T04:17:48.642Z,0.00
2023-03-08T04:18:48.629Z,0.00
2023-03-08T04:19:48.661Z,0.00
2023-03-08T04:20:48.644Z,0.00
2023-03-08T04:21:48.590Z,0.00
2023-03-08T04:22:48.591Z,0.00
2023-03-08T04:23:48.578Z,0.00
2023-03-08T04:24:48.572Z,0.00
2023-03-08T04:25:48.586Z,0.00
2023-03-08T04:26:48.580Z,0.00
2023-03-08T04:27:48.529Z,0.00
2023-03-08T04:28:48.527Z,0.00
2023-03-08T04:29:48.579Z,0.00
2023-03-08T04:30:48.497Z,0.00
2023-03-08T04:31:48.625Z,0.00
2023-03-08T04:32:48.479Z,0.00
2023-03-08T04:33:48.496Z,0.00
2023-03-08T04:34:48.449Z,0.00
2023-03-08T04:35:48.493Z,0.00
2023-03-08T04:36:48.449Z,0.00
2023-03-08T04:37:49.769Z,0.00
2023-03-08T04:38:48.427Z,0.00
2023-03-08T04:39:48.432Z,0.00
2023-03-08T04:40:48.417Z,0.00
2023-03-08T04:41:48.468Z,0.00
2023-03-08T04:42:48.369Z,0.00
2023-03-08T04:43:48.406Z,0.00
2023-03-08T04:44:48.371Z,0.00
2023-03-08T04:45:48.328Z,0.00
2023-03-08T04:46:48.397Z,0.00
2023-03-08T04:47:48.358Z,0.00
2023-03-08T04:48:48.370Z,0.00
2023-03-08T04:49:48.292Z,0.00
2023-03-08T04:50:48.281Z,0.00
2023-03-08T04:51:48.261Z,0.00
2023-03-08T04:52:48.270Z,0.00
2023-03-08T04:53:48.302Z,0.00
2023-03-08T04:54:48.274Z,0.00
2023-03-08T04:55:48.236Z,0.00
2023-03-08T04:56:48.219Z,0.00
2023-03-08T04:57:48.213Z,0.00
2023-03-08T04:58:48.200Z,0.00
2023-03-08T04:59:48.178Z,0.00
2023-03-08T05:00:48.191Z,0.00
2023-03-08T05:01:48.229Z,0.00
2023-03-08T05:02:48.155Z,0.00
2023-03-08T05:03:48.154Z,0.00
2023-03-08T05:04:48.166Z,0.00
2023-03-08T05:05:48.124Z,0.00
2023-03-08T05:06:48.145Z,0.00
2023-03-08T05:07:48.109Z,0.00
2023-03-08T05:08:48.081Z,0.00
2023-03-08T05:09:48.122Z,0.00
2023-03-08T05:10:48.053Z,0.00
2023-03-08T05:11:48.064Z,0.00
2023-03-08T05:12:48.071Z,0.00
2023-03-08T05:13:48.035Z,0.00
2023-03-08T05:14:48.075Z,0.00
2023-03-08T05:15:48.025Z,0.00
2023-03-08T05:16:48.034Z,0.00
2023-03-08T05:17:47.972Z,0.00
2023-03-08T05:18:48.039Z,0.00
2023-03-08T05:19:47.953Z,0.00
2023-03-08T05:20:47.943Z,0.00
2023-03-08T05:21:47.957Z,0.00
2023-03-08T05:22:57.882Z,0.00
2023-03-08T05:23:48.987Z,0.00
2023-03-08T05:24:47.899Z,0.00
2023-03-08T05:25:47.884Z,0.00
2023-03-08T05:26:47.919Z,0.00
2023-03-08T05:27:47.897Z,0.00
2023-03-08T05:28:47.861Z,0.00
2023-03-08T05:29:47.997Z,0.00
2023-03-08T05:30:47.828Z,0.00
2023-03-08T05:31:47.895Z,0.00
2023-03-08T05:32:47.928Z,0.00
2023-03-08T05:33:47.799Z,0.00
2023-03-08T05:34:47.796Z,4.00
2023-03-08T05:35:47.897Z,4.00
2023-03-08T05:36:47.770Z,0.00
2023-03-08T05:37:47.769Z,4.00
2023-03-08T05:38:47.763Z,4.00
2023-03-08T05:39:47.732Z,4.00
2023-03-08T05:40:47.749Z,4.00
2023-03-08T05:41:47.710Z,4.00
2023-03-08T05:42:47.729Z,8.00
2023-03-08T05:43:47.717Z,4.00
2023-03-08T05:44:47.681Z,8.00
2023-03-08T05:45:47.784Z,8.00
2023-03-08T05:46:47.700Z,12.00
2023-03-08T05:47:47.650Z,8.00
2023-03-08T05:48:47.620Z,12.00
2023-03-08T05:49:47.637Z,12.00
2023-03-08T05:50:47.624Z,16.00
2023-03-08T05:51:47.622Z,16.00
2023-03-08T05:52:47.632Z,20.00
2023-03-08T05:53:47.593Z,24.00
2023-03-08T05:54:47.573Z,28.00
2023-03-08T05:55:47.572Z,28.00
2023-03-08T05:56:47.541Z,32.00
2023-03-08T05:57:48.229Z,32.00
2023-03-08T05:58:48.453Z,36.00
2023-03-08T05:59:47.508Z,44.00
2023-03-08T06:00:47.502Z,44.00
2023-03-08T06:01:47.516Z,52.00
2023-03-08T06:02:47.477Z,52.00
2023-03-08T06:03:47.467Z,60.00
2023-03-08T06:04:47.491Z,60.00
2023-03-08T06:05:47.438Z,64.00
2023-03-08T06:06:47.432Z,68.00
2023-03-08T06:07:47.417Z,68.00
2023-03-08T06:08:47.427Z,72.00
2023-03-08T06:09:47.407Z,68.00
2023-03-08T06:10:47.439Z,68.00
2023-03-08T06:11:47.391Z,72.00
2023-03-08T06:12:47.364Z,84.00
2023-03-08T06:13:47.372Z,88.00
2023-03-08T06:14:47.340Z,92.00
2023-03-08T06:15:47.345Z,96.00
2023-03-08T06:16:47.373Z,104.00
2023-03-08T06:17:47.321Z,112.00
2023-03-08T06:18:47.309Z,116.00
2023-03-08T06:19:47.279Z,124.00
2023-03-08T06:20:47.294Z,136.00
2023-03-08T06:21:47.292Z,144.00
2023-03-08T06:22:47.306Z,148.00
2023-03-08T06:23:47.244Z,152.00
2023-03-08T06:24:47.235Z,164.00
2023-03-08T06:25:47.225Z,176.00
2023-03-08T06:26:47.198Z,184.00
2023-03-08T06:27:47.195Z,200.00
2023-03-08T06:28:47.241Z,224.00
2023-03-08T06:29:47.179Z,232.00
2023-03-08T06:30:47.424Z,236.00
2023-03-08T06:31:47.194Z,240.00
2023-03-08T06:32:47.204Z,236.00
2023-03-08T06:33:47.170Z,252.00
2023-03-08T06:34:47.148Z,260.00
2023-03-08T06:35:47.157Z,260.00
2023-03-08T06:36:47.132Z,272.00
2023-03-08T06:37:47.102Z,280.00
2023-03-08T06:38:47.079Z,288.00
2023-03-08T06:39:47.086Z,300.00
2023-03-08T06:40:47.045Z,308.00
2023-03-08T06:41:47.045Z,324.00
2023-03-08T06:42:47.027Z,340.00
2023-03-08T06:43:47.083Z,340.00
2023-03-08T06:44:47.034Z,384.00
2023-03-08T06:45:47.047Z,408.00
2023-03-08T06:46:47.213Z,436.00
2023-03-08T06:47:46.970Z,460.00
2023-03-08T06:48:46.977Z,468.00
2023-03-08T06:49:47.062Z,492.00
2023-03-08T06:50:47.001Z,524.00
2023-03-08T06:51:46.931Z,540.00
2023-03-08T06:52:46.924Z,556.00
2023-03-08T06:53:47.056Z,564.00
2023-03-08T06:54:46.909Z,572.00
2023-03-08T06:55:46.901Z,580.00
2023-03-08T06:56:46.921Z,592.00
2023-03-08T06:57:46.920Z,604.00
2023-03-08T06:58:46.852Z,616.00
2023-03-08T06:59:46.850Z,620.00
2023-03-08T07:00:46.835Z,636.00
2023-03-08T07:01:46.845Z,660.00
2023-03-08T07:02:46.850Z,676.00
2023-03-08T07:03:46.802Z,676.00
2023-03-08T07:04:49.466Z,668.00
2023-03-08T07:05:46.781Z,644.00
2023-03-08T07:06:46.792Z,616.00
2023-03-08T07:07:46.780Z,592.00
2023-03-08T07:08:46.769Z,564.00
2023-03-08T07:09:46.729Z,536.00
2023-03-08T07:10:46.717Z,524.00
2023-03-08T07:11:46.730Z,544.00
2023-03-08T07:12:46.760Z,600.00
2023-03-08T07:13:46.715Z,636.00
2023-03-08T07:14:46.726Z,676.00
2023-03-08T07:15:46.692Z,720.00
2023-03-08T07:16:46.691Z,748.00
2023-03-08T07:17:46.690Z,764.00
2023-03-08T07:18:46.624Z,796.00
2023-03-08T07:19:46.685Z,812.00
2023-03-08T07:20:46.606Z,824.00
2023-03-08T07:21:46.630Z,844.00
2023-03-08T07:22:46.590Z,828.00
2023-03-08T07:23:46.582Z,816.00
2023-03-08T07:24:48.721Z,800.00
2023-03-08T07:25:46.611Z,796.00
2023-03-08T07:26:46.568Z,816.00
2023-03-08T07:27:46.550Z,784.00
2023-03-08T07:28:46.515Z,768.00
2023-03-08T07:29:46.516Z,828.00
2023-03-08T07:30:46.526Z,824.00
2023-03-08T07:31:46.565Z,848.00
2023-03-08T07:32:46.638Z,844.00
2023-03-08T07:33:46.529Z,832.00
2023-03-08T07:34:46.459Z,900.00
2023-03-08T07:35:46.469Z,884.00
2023-03-08T07:36:46.453Z,900.00
2023-03-08T07:37:46.463Z,932.00
2023-03-08T07:38:46.412Z,908.00
2023-03-08T07:39:46.409Z,876.00
2023-03-08T07:40:46.398Z,928.00
2023-03-08T07:41:47.543Z,884.00
2023-03-08T07:42:46.384Z,740.00
2023-03-08T07:43:46.384Z,640.00
2023-03-08T07:44:46.364Z,636.00
2023-03-08T07:45:46.340Z,652.00
2023-03-08T07:46:46.365Z,704.00
2023-03-08T07:47:46.361Z,696.00
2023-03-08T07:48:46.357Z,656.00
2023-03-08T07:49:46.301Z,676.00
2023-03-08T07:50:46.292Z,720.00
2023-03-08T07:51:46.272Z,632.00
2023-03-08T07:52:46.262Z,584.00
2023-03-08T07:53:46.275Z,644.00
2023-03-08T07:54:46.263Z,652.00
2023-03-08T07:55:46.241Z,660.00
2023-03-08T07:56:46.248Z,640.00
2023-03-08T07:57:46.220Z,640.00
2023-03-08T07:58:46.189Z,664.00
2023-03-08T07:59:46.200Z,616.00
2023-03-08T08:00:46.223Z,564.00
2023-03-08T08:01:46.166Z,532.00
2023-03-08T08:02:46.209Z,556.00
2023-03-08T08:03:46.188Z,548.00
2023-03-08T08:04:46.121Z,588.00
2023-03-08T08:05:46.120Z,608.00
2023-03-08T08:06:46.134Z,624.00
2023-03-08T08:07:46.096Z,632.00
2023-03-08T08:08:46.085Z,628.00
2023-03-08T08:09:46.083Z,612.00
2023-03-08T08:10:46.089Z,612.00
2023-03-08T08:11:46.055Z,620.00
2023-03-08T08:12:46.066Z,600.00
2023-03-08T08:13:46.044Z,624.00
2023-03-08T08:14:46.052Z,648.00
2023-03-08T08:15:46.004Z,648.00
2023-03-08T08:16:46.064Z,684.00
2023-03-08T08:17:46.048Z,744.00
2023-03-08T08:18:45.975Z,812.00
2023-03-08T08:19:46.004Z,828.00
2023-03-08T08:20:45.958Z,828.00
2023-03-08T08:21:45.934Z,780.00
2023-03-08T08:22:45.960Z,756.00
2023-03-08T08:23:45.962Z,788.00
2023-03-08T08:24:45.911Z,796.00
2023-03-08T08:25:45.892Z,800.00
2023-03-08T08:26:45.906Z,800.00
2023-03-08T08:27:45.916Z,780.00
2023-03-08T08:28:45.936Z,748.00
2023-03-08T08:29:45.843Z,724.00
2023-03-08T08:30:45.844Z,760.00
2023-03-08T08:31:45.847Z,788.00
2023-03-08T08:32:45.873Z,820.00
2023-03-08T08:33:45.804Z,896.00
2023-03-08T08:34:45.831Z,860.00
2023-03-08T08:35:45.813Z,872.00
2023-03-08T08:36:45.794Z,932.00
2023-03-08T08:37:45.762Z,888.00
2023-03-08T08:38:45.751Z,976.00
2023-03-08T08:39:45.774Z,892.00
2023-03-08T08:40:45.925Z,824.00
2023-03-08T08:41:45.713Z,908.00
2023-03-08T08:42:45.714Z,988.00
2023-03-08T08:43:45.716Z,908.00
2023-03-08T08:44:45.693Z,864.00
2023-03-08T08:45:45.722Z,828.00
2023-03-08T08:46:45.689Z,740.00
2023-03-08T08:47:45.646Z,732.00
2023-03-08T08:48:45.643Z,676.00
2023-03-08T08:49:45.636Z,620.00
2023-03-08T08:50:45.639Z,572.00
2023-03-08T08:51:45.631Z,596.00
2023-03-08T08:52:45.600Z,620.00
2023-03-08T08:53:45.607Z,712.00
2023-03-08T08:54:45.634Z,872.00
2023-03-08T08:55:45.790Z,808.00
2023-03-08T08:56:45.597Z,880.00
2023-03-08T08:57:45.562Z,908.00
2023-03-08T08:58:45.523Z,740.00
2023-03-08T08:59:45.534Z,800.00
2023-03-08T09:00:45.546Z,1192.00
2023-03-08T09:01:45.496Z,1176.00
2023-03-08T09:02:45.532Z,936.00
2023-03-08T09:03:45.485Z,948.00
2023-03-08T09:04:45.577Z,1080.00
2023-03-08T09:05:45.441Z,1428.00
2023-03-08T09:06:45.452Z,1324.00
2023-03-08T09:07:45.453Z,1528.00
2023-03-08T09:08:45.493Z,1164.00
2023-03-08T09:09:45.394Z,1272.00
2023-03-08T09:10:45.391Z,1312.00
2023-03-08T09:11:54.201Z,1104.00
2023-03-08T09:12:46.449Z,1168.00
2023-03-08T09:13:45.354Z,1224.00
2023-03-08T09:14:45.425Z,1364.00
2023-03-08T09:15:45.354Z,1460.00
2023-03-08T09:16:45.399Z,1288.00
2023-03-08T09:17:45.322Z,1212.00
2023-03-08T09:18:45.333Z,1236.00
2023-03-08T09:19:45.295Z,1292.00
2023-03-08T09:20:45.317Z,1276.00
2023-03-08T09:21:45.267Z,1436.00
2023-03-08T09:22:45.267Z,1588.00
2023-03-08T09:23:45.260Z,1760.00
2023-03-08T09:24:45.259Z,1708.00
2023-03-08T09:25:45.249Z,1572.00
2023-03-08T09:26:45.257Z,1304.00
2023-03-08T09:27:45.210Z,1148.00
2023-03-08T09:28:45.202Z,1100.00
2023-03-08T09:29:45.193Z,1272.00
2023-03-08T09:30:45.203Z,1348.00
2023-03-08T09:31:45.339Z,1396.00
2023-03-08T09:32:45.236Z,1388.00
2023-03-08T09:33:45.186Z,1264.00
2023-03-08T09:34:45.146Z,1096.00
2023-03-08T09:35:45.222Z,1376.00
2023-03-08T09:36:45.164Z,1640.00
2023-03-08T09:37:45.113Z,1344.00
2023-03-08T09:38:45.125Z,1580.00
2023-03-08T09:39:45.090Z,1980.00
2023-03-08T09:40:45.090Z,1588.00
2023-03-08T09:41:45.054Z,2096.00
2023-03-08T09:42:45.091Z,1792.00
2023-03-08T09:43:45.038Z,1856.00
2023-03-08T09:44:45.025Z,2312.00
2023-03-08T09:45:45.037Z,2320.00
2023-03-08T09:46:45.015Z,1500.00
2023-03-08T09:47:45.092Z,1684.00
2023-03-08T09:48:45.001Z,2536.00
2023-03-08T09:49:44.976Z,2604.00
2023-03-08T09:50:44.970Z,1584.00
2023-03-08T09:51:44.962Z,1288.00
2023-03-08T09:52:44.970Z,1688.00
2023-03-08T09:53:44.955Z,2552.00
2023-03-08T09:54:44.948Z,3448.00
2023-03-08T09:55:44.915Z,2952.00
2023-03-08T09:56:44.920Z,2760.00
2023-03-08T09:57:44.935Z,2180.00
2023-03-08T09:58:44.863Z,2304.00
2023-03-08T09:59:44.898Z,3224.00
2023-03-08T10:00:44.913Z,2444.00
2023-03-08T10:01:44.849Z,2468.00
2023-03-08T10:02:44.907Z,3480.00
2023-03-08T10:03:44.823Z,2904.00
2023-03-08T10:04:44.821Z,1860.00
2023-03-08T10:05:44.805Z,1772.00
2023-03-08T10:06:44.798Z,2360.00
2023-03-08T10:07:44.775Z,3200.00
2023-03-08T10:08:44.770Z,2716.00
2023-03-08T10:09:44.807Z,2544.00
2023-03-08T10:10:44.777Z,3032.00
2023-03-08T10:11:44.738Z,2780.00
2023-03-08T10:12:44.720Z,2304.00
2023-03-08T10:13:44.699Z,2356.00
2023-03-08T10:14:44.752Z,2240.00
2023-03-08T10:15:44.819Z,2536.00
2023-03-08T10:16:44.786Z,2488.00
2023-03-08T10:17:44.653Z,2324.00
2023-03-08T10:18:44.684Z,1956.00
2023-03-08T10:19:44.700Z,2248.00
2023-03-08T10:20:44.633Z,2848.00
2023-03-08T10:21:44.675Z,2580.00
2023-03-08T10:22:44.682Z,2200.00
2023-03-08T10:23:44.599Z,2464.00
2023-03-08T10:24:44.570Z,2700.00
2023-03-08T10:25:44.583Z,2264.00
2023-03-08T10:26:44.548Z,1940.00
2023-03-08T10:27:44.628Z,1868.00
2023-03-08T10:28:44.559Z,1800.00
2023-03-08T10:29:44.574Z,1612.00
2023-03-08T10:30:44.645Z,1644.00
2023-03-08T10:31:44.551Z,1864.00
2023-03-08T10:32:44.546Z,1832.00
2023-03-08T10:33:44.555Z,1716.00
2023-03-08T10:34:44.467Z,1640.00
2023-03-08T10:35:44.480Z,1716.00
2023-03-08T10:36:44.457Z,1960.00
2023-03-08T10:37:44.455Z,2000.00
2023-03-08T10:38:44.427Z,1880.00
2023-03-08T10:39:44.458Z,2040.00
2023-03-08T10:40:44.404Z,1868.00
2023-03-08T10:41:44.401Z,1864.00
2023-03-08T10:42:44.432Z,1792.00
2023-03-08T10:43:44.375Z,1604.00
2023-03-08T10:44:44.478Z,1492.00
2023-03-08T10:45:44.358Z,1476.00
2023-03-08T10:46:44.342Z,1684.00
2023-03-08T10:47:44.336Z,1716.00
2023-03-08T10:48:44.329Z,1908.00
2023-03-08T10:49:44.324Z,1880.00
2023-03-08T10:50:44.326Z,1864.00
2023-03-08T10:51:44.298Z,2016.00
2023-03-08T10:52:44.272Z,1916.00
2023-03-08T10:53:44.277Z,1860.00
2023-03-08T10:54:44.282Z,1896.00
2023-03-08T10:55:44.247Z,1828.00
2023-03-08T10:56:44.261Z,1780.00
2023-03-08T10:57:44.239Z,1856.00
2023-03-08T10:58:44.214Z,1852.00
2023-03-08T10:59:44.226Z,2016.00
2023-03-08T11:00:44.197Z,2080.00
2023-03-08T11:01:44.203Z,1888.00
2023-03-08T11:02:44.196Z,1948.00
2023-03-08T11:03:44.162Z,2000.00
2023-03-08T11:04:44.193Z,2104.00
2023-03-08T11:05:44.139Z,2112.00
2023-03-08T11:06:44.119Z,2204.00
2023-03-08T11:07:44.138Z,2276.00
2023-03-08T11:08:44.104Z,2208.00
2023-03-08T11:09:44.094Z,1756.00
2023-03-08T11:10:44.122Z,1828.00
2023-03-08T11:11:44.069Z,2148.00
2023-03-08T11:12:44.088Z,2328.00
2023-03-08T11:13:44.060Z,2072.00
2023-03-08T11:14:44.086Z,2028.00
2023-03-08T11:15:44.065Z,2060.00
2023-03-08T11:16:44.063Z,2148.00
2023-03-08T11:17:44.018Z,2232.00
2023-03-08T11:18:44.044Z,2260.00
2023-03-08T11:19:44.234Z,2120.00
2023-03-08T11:20:43.979Z,1788.00
2023-03-08T11:21:43.982Z,1944.00
2023-03-08T11:22:43.962Z,2064.00
2023-03-08T11:23:43.943Z,2020.00
2023-03-08T11:24:43.944Z,2320.00
2023-03-08T11:25:43.960Z,2584.00
2023-03-08T11:26:43.967Z,2268.00
2023-03-08T11:27:43.973Z,2100.00
2023-03-08T11:28:43.935Z,2232.00
2023-03-08T11:29:43.860Z,2176.00
2023-03-08T11:30:43.904Z,2304.00
2023-03-08T11:31:43.850Z,2636.00
2023-03-08T11:32:44.137Z,2544.00
2023-03-08T11:33:43.928Z,2564.00
2023-03-08T11:34:43.816Z,2764.00
2023-03-08T11:35:43.831Z,2356.00
2023-03-08T11:36:43.815Z,2260.00
2023-03-08T11:37:43.774Z,1924.00
2023-03-08T11:38:43.792Z,1784.00
2023-03-08T11:39:43.778Z,1940.00
2023-03-08T11:40:43.757Z,2004.00
2023-03-08T11:41:43.731Z,1864.00
2023-03-08T11:42:43.746Z,1676.00
2023-03-08T11:43:43.950Z,1624.00
2023-03-08T11:44:43.849Z,1736.00
2023-03-08T11:45:43.690Z,1828.00
2023-03-08T11:46:43.727Z,1872.00
2023-03-08T11:47:43.702Z,1980.00
2023-03-08T11:48:43.698Z,2288.00
2023-03-08T11:49:43.650Z,2444.00
2023-03-08T11:50:43.640Z,2204.00
2023-03-08T11:51:43.633Z,2084.00
2023-03-08T11:52:43.634Z,2072.00
2023-03-08T11:53:44.080Z,2028.00
2023-03-08T11:54:43.595Z,1908.00
2023-03-08T11:55:43.592Z,1992.00
2023-03-08T11:56:43.564Z,2596.00
2023-03-08T11:57:43.544Z,2836.00
2023-03-08T11:58:43.632Z,2632.00
2023-03-08T11:59:43.575Z,2344.00
2023-03-08T12:00:43.514Z,2520.00
2023-03-08T12:01:43.504Z,2356.00
2023-03-08T12:02:43.495Z,2536.00
2023-03-08T12:03:43.547Z,2832.00
2023-03-08T12:04:43.579Z,2876.00
2023-03-08T12:05:43.615Z,3044.00
2023-03-08T12:06:43.617Z,3328.00
2023-03-08T12:07:43.496Z,3792.00
2023-03-08T12:08:43.454Z,4136.00
2023-03-08T12:09:43.527Z,3488.00
2023-03-08T12:10:43.415Z,3164.00
2023-03-08T12:11:43.419Z,2840.00
2023-03-08T12:12:43.400Z,2772.00
2023-03-08T12:13:43.373Z,2756.00
2023-03-08T12:14:43.365Z,3012.00
2023-03-08T12:15:43.437Z,2608.00
2023-03-08T12:16:43.593Z,2648.00
2023-03-08T12:17:43.332Z,2384.00
2023-03-08T12:18:43.319Z,2216.00
2023-03-08T12:19:43.320Z,2236.00
2023-03-08T12:20:43.295Z,2248.00
2023-03-08T12:21:43.268Z,2328.00
2023-03-08T12:22:43.346Z,2516.00
2023-03-08T12:23:43.261Z,2676.00
2023-03-08T12:24:43.284Z,2512.00
2023-03-08T12:25:43.227Z,2480.00
2023-03-08T12:26:43.385Z,2484.00
2023-03-08T12:27:43.255Z,2324.00
2023-03-08T12:28:43.219Z,2356.00
2023-03-08T12:29:43.233Z,2568.00
2023-03-08T12:30:43.185Z,2480.00
2023-03-08T12:31:43.236Z,2724.00
2023-03-08T12:32:43.261Z,2664.00
2023-03-08T12:33:43.143Z,2464.00
2023-03-08T12:34:43.156Z,2448.00
2023-03-08T12:35:43.235Z,2444.00
2023-03-08T12:36:43.153Z,2508.00
2023-03-08T12:37:43.152Z,2572.00
2023-03-08T12:38:43.103Z,2864.00
2023-03-08T12:39:43.095Z,2888.00
2023-03-08T12:40:43.120Z,2724.00
2023-03-08T12:41:43.100Z,2708.00
2023-03-08T12:42:43.073Z,2668.00
2023-03-08T12:43:43.031Z,2580.00
2023-03-08T12:44:43.023Z,2400.00